Tampa International Airport
KTPA : rendu visible

Aérodrome :











RETROUVEZ-NOUS SUR...

 
LOGIN :

S'inscrire | Disclaimer

   EN    FR    IT 

 









Légende :    VFR   VFR Marginal   IFR   IFR Intensif   IFR Très Intensif
Visi : 
Plafond : 
>= 8 km
>= 3000ft
5 à 8 km
1000 à 3000 ft
1500m à 5 km
500 à 1000 ft
800 à 1500m
200 à 500 ft
< 800m
< 200 ft
Symboles :   Orages  Brouillard  Fortes neiges  Fortes précipitations  Vent > 20 kt






- Altitude de l'aérodrome : 26 ft
- Code IATA : TPA


KTPA - Tampa International

DERNIER METAR :
  • 100853Z 00000KT 10SM CLR 19/17 A3010 RMK AO2 SLP191 T01830167 55002 $

METARs EXPIRÉS :
  • 100753Z 00000KT 10SM CLR 18/17 A3010 RMK AO2 SLP191 T01830167 $
  • 100653Z 10003KT 10SM FEW045 20/17 A3010 RMK AO2 SLP194 T02000172 $

TAF KTPA
Valide du 10 à 06h jusqu'au 11 à 12h UTC


100520Z 1006/1112 VRB03KT P6SM FEW045 SCT250
FM100900 VRB03KT 6SM BR SCT030
FM101300 15007KT P6SM SCT030 BKN060
FM102100 20007KT P6SM SCT030
FM110200 VRB04KT P6SM SCT025



MET'MAP, la Météo Aéronautique d'un coup d'oeil ! - Copyright ORBIFLY Décembre 2007 - Disclaimer

ORBIFLY MET'MAP TEAM :

Programmation & Développement : Alexandra Zaïnal
Sur une idée originale de : Baudouin d'Aumeries
Assistance à la programmation : Marc-Olivier Méhu
Soutien technique & logistique : Manuel Goepfert

Contact : metmap@orbifly.com




SOURCES & CREDITS :

   NOAA       Earth
Advisory